Terminal Aerodrome Forecast
Issued by NWS Goodland, KS

Home | Current Version | Previous Version | Text Only | Print | Product List | Glossary On
Versions: 1 2 3 4 5 6 7 8 9 10 11 12 13 14 15 16
000
FTUS43 KGLD 281120
TAFGLD
TAF
KGLD 281120Z 2812/2912 VRB05KT 6SM BR SCT200
      TEMPO 2812/2814 3SM BR OVC015
     FM281600 35014G22KT P6SM VCSH SCT025 BKN060
     FM282000 34010KT P6SM VCSH BKN060
     FM290000 30007KT P6SM VCSH BKN060=

USA.gov is the U.S. government's official web portal to all federal, state and local government web resources and services.